createdAt,value
2018-11-14T00:00:03.900Z,7.40
2018-11-14T00:02:38.356Z,7.17
2018-11-14T00:05:07.070Z,6.70
2018-11-14T00:07:35.351Z,7.43
2018-11-14T00:10:03.706Z,7.23
2018-11-14T00:12:31.868Z,7.20
2018-11-14T00:15:00.080Z,8.73
2018-11-14T00:17:28.323Z,7.20
2018-11-14T00:19:56.526Z,7.57
2018-11-14T00:22:24.798Z,7.03
2018-11-14T00:24:53.291Z,8.03
2018-11-14T00:27:21.220Z,6.73
2018-11-14T00:29:49.536Z,7.53
2018-11-14T00:32:17.766Z,7.50
2018-11-14T00:34:46.045Z,7.10
2018-11-14T00:37:14.290Z,6.80
2018-11-14T00:39:42.533Z,7.83
2018-11-14T00:42:10.796Z,8.30
2018-11-14T00:44:39.122Z,7.33
2018-11-14T00:47:07.436Z,8.30
2018-11-14T00:49:35.706Z,8.90
2018-11-14T00:52:03.993Z,7.50
2018-11-14T00:54:32.230Z,8.40
2018-11-14T00:57:00.432Z,7.70
2018-11-14T00:59:28.682Z,7.57
2018-11-14T01:01:56.940Z,9.10
2018-11-14T01:04:25.120Z,8.23
2018-11-14T01:06:59.722Z,8.90
2018-11-14T01:09:27.991Z,7.97
2018-11-14T01:11:56.192Z,8.83
2018-11-14T01:14:24.364Z,8.67
2018-11-14T01:16:59.713Z,9.33
2018-11-14T01:19:27.970Z,8.70
2018-11-14T01:21:56.238Z,10.03
2018-11-14T01:24:24.436Z,9.60
2018-11-14T01:26:52.610Z,8.63
2018-11-14T01:29:20.856Z,9.23
2018-11-14T01:31:49.093Z,10.27
2018-11-14T01:34:17.369Z,9.70
2018-11-14T01:36:45.690Z,8.90
2018-11-14T01:39:13.948Z,10.10
2018-11-14T01:41:42.395Z,10.50
2018-11-14T01:44:10.673Z,9.60
2018-11-14T01:46:38.950Z,11.00
2018-11-14T01:49:07.873Z,10.07
2018-11-14T01:51:36.043Z,10.47
2018-11-14T01:54:04.259Z,11.13
2018-11-14T01:56:32.485Z,9.67
2018-11-14T01:59:00.663Z,11.33
2018-11-14T02:01:28.812Z,11.37
2018-11-14T02:03:57.077Z,11.03
2018-11-14T02:06:25.555Z,10.90
2018-11-14T02:08:53.806Z,11.10
2018-11-14T02:11:21.975Z,12.43
2018-11-14T02:13:50.149Z,10.30
2018-11-14T02:16:18.387Z,10.40
2018-11-14T02:18:46.595Z,12.20
2018-11-14T02:21:14.849Z,11.73
2018-11-14T02:23:43.033Z,12.33
2018-11-14T02:26:11.513Z,11.33
2018-11-14T02:28:39.699Z,12.40
2018-11-14T02:31:07.905Z,11.43
2018-11-14T02:33:36.119Z,11.00
2018-11-14T02:36:04.353Z,12.33
2018-11-14T02:38:32.591Z,11.97
2018-11-14T02:41:00.798Z,11.50
2018-11-14T02:43:29.051Z,11.63
2018-11-14T02:45:57.233Z,11.33
2018-11-14T02:48:25.717Z,11.90
2018-11-14T02:51:05.423Z,12.23
2018-11-14T02:53:33.701Z,12.10
2018-11-14T02:56:09.653Z,12.70
2018-11-14T02:58:37.913Z,12.77
2018-11-14T03:01:06.461Z,10.77
2018-11-14T03:03:34.739Z,11.70
2018-11-14T03:06:02.885Z,12.87
2018-11-14T03:08:31.243Z,11.77
2018-11-14T03:10:59.387Z,12.63
2018-11-14T03:13:27.593Z,12.23
2018-11-14T03:15:55.797Z,12.20
2018-11-14T03:18:24.058Z,12.70
2018-11-14T03:20:52.251Z,12.57
2018-11-14T03:23:20.435Z,12.90
2018-11-14T03:25:48.631Z,13.10
2018-11-14T03:28:16.832Z,14.60
2018-11-14T03:30:45.138Z,14.40
2018-11-14T03:33:13.359Z,12.80
2018-11-14T03:36:19.027Z,13.47
2018-11-14T03:38:47.476Z,13.13
2018-11-14T03:41:15.790Z,14.47
2018-11-14T03:43:44.240Z,13.93
2018-11-14T03:46:12.510Z,14.73
2018-11-14T03:48:40.810Z,13.27
2018-11-14T03:51:09.089Z,14.13
2018-11-14T03:53:37.307Z,14.40
2018-11-14T03:56:06.208Z,14.63
2018-11-14T03:58:34.545Z,15.30
2018-11-14T04:01:02.765Z,14.73
2018-11-14T04:03:30.946Z,14.90
2018-11-14T04:05:59.216Z,15.33
2018-11-14T04:08:27.499Z,14.70
2018-11-14T04:10:55.752Z,14.93
2018-11-14T04:13:24.172Z,15.53
2018-11-14T04:15:52.404Z,15.90
2018-11-14T04:18:20.682Z,16.37
2018-11-14T04:20:49.020Z,14.50
2018-11-14T04:23:17.239Z,15.37
2018-11-14T04:25:45.616Z,16.13
2018-11-14T04:28:13.840Z,15.93
2018-11-14T04:30:42.091Z,15.00
2018-11-14T04:33:10.334Z,15.30
2018-11-14T04:35:38.592Z,16.47
2018-11-14T04:38:06.746Z,16.03
2018-11-14T04:40:34.955Z,15.93
2018-11-14T04:43:03.126Z,15.97
2018-11-14T04:45:31.411Z,15.80
2018-11-14T04:47:59.617Z,15.27
2018-11-14T04:50:27.812Z,14.80
2018-11-14T04:52:56.426Z,16.90
2018-11-14T04:55:31.537Z,15.37
2018-11-14T04:58:00.026Z,16.50
2018-11-14T05:00:28.248Z,15.73
2018-11-14T05:02:56.568Z,15.53
2018-11-14T05:05:25.327Z,17.20
2018-11-14T05:07:53.640Z,16.30
2018-11-14T05:10:23.080Z,16.90
2018-11-14T05:12:51.790Z,15.53
2018-11-14T05:15:21.486Z,16.27
2018-11-14T05:17:50.402Z,16.90
2018-11-14T05:20:19.474Z,16.40
2018-11-14T05:22:48.696Z,18.30
2018-11-14T05:25:17.052Z,18.47
2018-11-14T05:27:45.489Z,17.10
2018-11-14T05:30:15.035Z,16.13
2018-11-14T05:32:44.171Z,17.80
2018-11-14T05:35:12.944Z,17.33
2018-11-14T05:37:41.300Z,16.30
2018-11-14T05:40:11.510Z,17.10
2018-11-14T05:42:40.326Z,16.43
2018-11-14T05:45:11.983Z,20.57
2018-11-14T05:47:40.357Z,17.23
2018-11-14T05:50:10.648Z,19.03
2018-11-14T05:52:38.953Z,19.03
2018-11-14T05:55:07.870Z,18.70
2018-11-14T05:57:36.065Z,19.30
2018-11-14T06:00:06.327Z,19.87
2018-11-14T06:02:34.513Z,19.40
2018-11-14T06:05:02.755Z,18.50
2018-11-14T06:07:31.019Z,18.50
2018-11-14T06:09:59.331Z,20.63
2018-11-14T06:12:27.553Z,22.43
2018-11-14T06:14:55.830Z,20.30
2018-11-14T06:17:23.993Z,20.80
2018-11-14T06:19:52.287Z,20.17
2018-11-14T06:22:20.559Z,21.40
2018-11-14T06:24:48.875Z,20.43
2018-11-14T06:27:17.065Z,19.60
2018-11-14T06:29:45.395Z,23.27
2018-11-14T06:32:13.599Z,21.53
2018-11-14T06:34:41.797Z,23.00
2018-11-14T06:37:10.068Z,21.17
2018-11-14T06:39:38.255Z,22.80
2018-11-14T06:42:06.486Z,22.50
2018-11-14T06:44:34.661Z,22.07
2018-11-14T06:47:02.912Z,22.30
2018-11-14T06:49:31.153Z,24.00
2018-11-14T06:51:59.433Z,20.37
2018-11-14T06:54:27.641Z,21.70
2018-11-14T06:56:55.851Z,21.70
2018-11-14T06:59:24.072Z,23.20
2018-11-14T07:01:52.259Z,22.20
2018-11-14T07:04:20.483Z,24.40
2018-11-14T07:06:48.666Z,21.93
2018-11-14T07:09:16.910Z,22.93
2018-11-14T07:11:45.098Z,21.97
2018-11-14T07:14:13.270Z,22.30
2018-11-14T07:16:41.634Z,22.00
2018-11-14T07:19:11.202Z,22.47
2018-11-14T07:21:39.408Z,22.23
2018-11-14T07:24:07.654Z,23.70
2018-11-14T07:26:35.871Z,21.73
2018-11-14T07:29:04.098Z,21.17
2018-11-14T07:31:32.360Z,21.93
2018-11-14T07:34:00.558Z,20.23
2018-11-14T07:36:28.746Z,21.10
2018-11-14T07:38:56.986Z,20.77
2018-11-14T07:41:27.689Z,19.60
2018-11-14T07:43:56.100Z,19.27
2018-11-14T07:46:25.312Z,18.50
2018-11-14T07:48:53.836Z,20.00
2018-11-14T07:51:22.424Z,19.57
2018-11-14T07:53:51.402Z,18.27
2018-11-14T07:56:19.912Z,18.57
2018-11-14T07:58:48.434Z,17.63
2018-11-14T08:01:16.864Z,19.97
2018-11-14T08:03:45.506Z,16.30
2018-11-14T08:06:14.196Z,18.00
2018-11-14T08:08:44.754Z,16.20
2018-11-14T08:11:13.238Z,16.70
2018-11-14T08:13:43.056Z,15.90
2018-11-14T08:16:11.482Z,16.80
2018-11-14T08:18:39.894Z,16.00
2018-11-14T08:21:08.357Z,15.13
2018-11-14T08:23:36.589Z,15.43
2018-11-14T08:26:04.835Z,14.50
2018-11-14T08:28:33.082Z,14.80
2018-11-14T08:31:01.286Z,14.40
2018-11-14T08:33:29.498Z,14.90
2018-11-14T08:35:57.733Z,16.03
2018-11-14T08:38:25.941Z,15.13
2018-11-14T08:40:54.229Z,14.87
2018-11-14T08:43:22.456Z,12.47
2018-11-14T08:45:51.051Z,14.70
2018-11-14T08:48:19.326Z,14.40
2018-11-14T08:50:47.589Z,14.13
2018-11-14T08:53:15.906Z,13.87
2018-11-14T08:55:44.113Z,13.57
2018-11-14T08:58:13.809Z,12.30
2018-11-14T09:00:42.099Z,12.03
2018-11-14T09:03:12.279Z,13.00
2018-11-14T09:05:40.447Z,12.40
2018-11-14T09:08:08.731Z,12.67
2018-11-14T09:10:36.886Z,13.43
2018-11-14T09:13:05.155Z,11.33
2018-11-14T09:15:33.309Z,12.50
2018-11-14T09:18:01.954Z,10.17
2018-11-14T09:20:30.186Z,11.20
2018-11-14T09:22:58.381Z,9.80
2018-11-14T09:25:28.315Z,10.80
2018-11-14T09:27:56.963Z,10.53
2018-11-14T09:30:25.981Z,10.90
2018-11-14T09:32:54.262Z,10.07
2018-11-14T09:35:23.157Z,11.10
2018-11-14T09:37:51.953Z,10.50
2018-11-14T09:40:22.516Z,10.83
2018-11-14T09:42:50.801Z,11.37
2018-11-14T09:45:27.017Z,12.87
2018-11-14T09:47:55.281Z,11.00
2018-11-14T09:50:25.971Z,10.77
2018-11-14T09:52:56.278Z,11.13
2018-11-14T09:55:24.513Z,8.77
2018-11-14T09:57:52.746Z,11.17
2018-11-14T10:00:23.541Z,11.70
2018-11-14T10:02:53.748Z,9.70
2018-11-14T10:05:23.068Z,9.67
2018-11-14T10:07:51.417Z,10.43
2018-11-14T10:10:20.863Z,10.90
2018-11-14T10:12:49.143Z,10.13
2018-11-14T10:15:18.677Z,10.30
2018-11-14T10:17:47.412Z,11.50
2018-11-14T10:20:16.897Z,10.80
2018-11-14T10:22:45.477Z,10.87
2018-11-14T10:25:14.701Z,11.00
2018-11-14T10:27:43.561Z,10.53
2018-11-14T10:30:14.849Z,10.80
2018-11-14T10:32:47.353Z,10.53
2018-11-14T10:35:15.634Z,10.87
2018-11-14T10:37:44.209Z,10.90
2018-11-14T10:40:16.861Z,12.50
2018-11-14T10:42:45.364Z,11.87
2018-11-14T10:45:14.777Z,12.03
2018-11-14T10:47:43.098Z,11.80
2018-11-14T10:50:14.983Z,11.30
2018-11-14T10:52:43.223Z,11.00
2018-11-14T10:55:12.317Z,10.63
2018-11-14T10:57:40.637Z,10.80
2018-11-14T11:00:21.163Z,10.80
2018-11-14T11:02:54.654Z,10.07
2018-11-14T11:05:28.163Z,9.77
2018-11-14T11:08:01.885Z,10.20
2018-11-14T11:10:35.820Z,9.87
2018-11-14T11:13:09.507Z,10.57
2018-11-14T11:15:43.191Z,10.30
2018-11-14T11:18:13.397Z,10.97
2018-11-14T11:20:43.130Z,10.30
2018-11-14T11:23:11.447Z,11.17
2018-11-14T11:25:39.826Z,9.60
2018-11-14T11:28:08.039Z,10.30
2018-11-14T11:30:36.395Z,10.10
2018-11-14T11:33:05.296Z,10.50
2018-11-14T11:35:33.523Z,11.33
2018-11-14T11:38:01.850Z,9.50
2018-11-14T11:40:30.192Z,10.27
2018-11-14T11:42:58.408Z,10.00
2018-11-14T11:45:26.593Z,10.00
2018-11-14T11:47:54.787Z,13.20
2018-11-14T11:50:22.953Z,9.87
2018-11-14T11:52:51.196Z,9.80
2018-11-14T11:55:19.549Z,9.40
2018-11-14T11:57:48.089Z,8.10
2018-11-14T12:00:16.391Z,8.63
2018-11-14T12:02:44.820Z,9.50
2018-11-14T12:05:14.032Z,8.97
2018-11-14T12:07:42.859Z,8.80
2018-11-14T12:10:12.568Z,9.27
2018-11-14T12:12:41.329Z,9.50
2018-11-14T12:15:10.610Z,8.63
2018-11-14T12:17:39.400Z,8.93
2018-11-14T12:20:09.088Z,9.27
2018-11-14T12:22:38.004Z,8.40
2018-11-14T12:25:07.607Z,8.90
2018-11-14T12:27:35.809Z,9.23
2018-11-14T12:30:05.252Z,8.80
2018-11-14T12:32:33.400Z,8.70
2018-11-14T12:35:01.591Z,9.63
2018-11-14T12:37:29.958Z,9.77
2018-11-14T12:39:58.235Z,8.17
2018-11-14T12:42:26.472Z,7.30
2018-11-14T12:44:54.726Z,8.00
2018-11-14T12:47:22.967Z,7.97
2018-11-14T12:49:53.220Z,8.00
2018-11-14T12:52:21.464Z,9.30
2018-11-14T12:54:49.796Z,9.37
2018-11-14T12:57:17.980Z,8.30
2018-11-14T12:59:46.217Z,9.23
2018-11-14T13:02:14.420Z,8.33
2018-11-14T13:04:42.689Z,9.00
2018-11-14T13:07:10.919Z,9.30
2018-11-14T13:09:39.124Z,8.33
2018-11-14T13:12:07.319Z,9.30
2018-11-14T13:14:35.632Z,10.27
2018-11-14T13:17:03.925Z,10.13
2018-11-14T13:19:32.360Z,9.63
2018-11-14T13:22:00.703Z,9.70
2018-11-14T13:24:28.860Z,9.83
2018-11-14T13:26:57.105Z,9.43
2018-11-14T13:29:25.387Z,9.60
2018-11-14T13:31:53.529Z,9.50
2018-11-14T13:34:21.749Z,9.37
2018-11-14T13:36:50.047Z,9.10
2018-11-14T13:39:18.363Z,8.50
2018-11-14T13:41:46.607Z,10.03
2018-11-14T13:44:14.727Z,11.10
2018-11-14T13:46:44.516Z,11.03
2018-11-14T13:49:12.912Z,10.80
2018-11-14T13:51:41.087Z,10.00
2018-11-14T13:54:09.279Z,11.40
2018-11-14T13:56:37.468Z,11.83
2018-11-14T13:59:05.999Z,8.80
2018-11-14T14:01:34.227Z,10.20
2018-11-14T14:04:02.595Z,10.50
2018-11-14T14:06:30.799Z,10.70
2018-11-14T14:08:59.023Z,9.90
2018-11-14T14:11:27.470Z,11.23
2018-11-14T14:14:01.033Z,10.07
2018-11-14T14:16:29.498Z,10.10
2018-11-14T14:18:57.704Z,10.43
2018-11-14T14:21:25.935Z,11.40
2018-11-14T14:23:54.146Z,10.57
2018-11-14T14:26:22.465Z,10.43
2018-11-14T14:28:50.723Z,9.50
2018-11-14T14:31:18.916Z,10.17
2018-11-14T14:33:47.195Z,10.20
2018-11-14T14:36:15.449Z,10.40
2018-11-14T14:38:43.626Z,10.30
2018-11-14T14:41:11.830Z,9.57
2018-11-14T14:43:40.061Z,10.00
2018-11-14T14:46:08.285Z,10.03
2018-11-14T14:48:36.501Z,11.17
2018-11-14T14:51:05.112Z,12.20
2018-11-14T14:53:33.269Z,10.70
2018-11-14T14:56:01.491Z,11.23
2018-11-14T14:58:29.693Z,12.17
2018-11-14T15:00:57.900Z,11.80
2018-11-14T15:03:26.122Z,12.27
2018-11-14T15:05:54.258Z,12.10
2018-11-14T15:08:22.529Z,12.60
2018-11-14T15:10:50.719Z,13.40
2018-11-14T15:13:18.921Z,14.17
2018-11-14T15:15:47.118Z,12.70
2018-11-14T15:18:15.387Z,12.87
2018-11-14T15:20:43.525Z,14.60
2018-11-14T15:23:11.738Z,13.40
2018-11-14T15:25:39.896Z,13.90
2018-11-14T15:28:08.091Z,14.90
2018-11-14T15:30:36.336Z,16.60
2018-11-14T15:33:04.518Z,15.80
2018-11-14T15:35:32.858Z,16.47
2018-11-14T15:38:01.216Z,16.50
2018-11-14T15:40:29.575Z,16.00
2018-11-14T15:42:57.813Z,15.33
2018-11-14T15:45:27.273Z,15.63
2018-11-14T15:47:55.522Z,18.03
2018-11-14T15:50:25.978Z,15.17
2018-11-14T15:52:55.317Z,19.20
2018-11-14T15:55:23.798Z,17.27
2018-11-14T15:57:52.102Z,20.97
2018-11-14T16:00:23.725Z,19.90
2018-11-14T16:02:51.888Z,19.57
2018-11-14T16:05:21.425Z,20.20
2018-11-14T16:07:50.780Z,18.93
2018-11-14T16:10:20.250Z,19.30
2018-11-14T16:12:48.456Z,21.10
2018-11-14T16:15:19.154Z,22.53
2018-11-14T16:17:47.831Z,22.20
2018-11-14T16:20:17.434Z,22.70
2018-11-14T16:22:45.800Z,20.60
2018-11-14T16:25:15.486Z,21.53
2018-11-14T16:27:51.431Z,22.93
2018-11-14T16:30:25.192Z,24.00
2018-11-14T16:32:54.845Z,26.27
2018-11-14T16:35:23.076Z,24.90
2018-11-14T16:37:51.316Z,23.87
2018-11-14T16:40:20.776Z,23.97
2018-11-14T16:42:49.735Z,23.53
2018-11-14T16:45:18.052Z,24.83
2018-11-14T16:47:46.272Z,22.33
2018-11-14T16:50:15.546Z,24.30
2018-11-14T16:52:43.770Z,22.43
2018-11-14T16:55:13.122Z,22.57
2018-11-14T16:57:42.105Z,21.80
2018-11-14T17:00:13.221Z,21.87
2018-11-14T17:02:41.951Z,22.67
2018-11-14T17:05:10.301Z,22.97
2018-11-14T17:07:38.528Z,24.40
2018-11-14T17:10:08.797Z,24.13
2018-11-14T17:12:37.420Z,22.77
2018-11-14T17:15:06.585Z,24.10
2018-11-14T17:17:34.793Z,22.63
2018-11-14T17:20:02.953Z,22.77
2018-11-14T17:22:31.168Z,22.80
2018-11-14T17:24:59.347Z,25.33
2018-11-14T17:27:27.584Z,23.33
2018-11-14T17:29:55.851Z,23.43
2018-11-14T17:32:24.129Z,23.77
2018-11-14T17:34:52.406Z,22.97
2018-11-14T17:37:20.649Z,24.37
2018-11-14T17:39:48.895Z,23.90
2018-11-14T17:42:17.156Z,23.10
2018-11-14T17:44:45.330Z,24.30
2018-11-14T17:47:13.546Z,23.07
2018-11-14T17:49:42.371Z,23.87
2018-11-14T17:52:10.563Z,23.87
2018-11-14T17:54:38.717Z,24.33
2018-11-14T17:57:06.864Z,23.93
2018-11-14T17:59:35.056Z,23.00
2018-11-14T18:02:03.225Z,24.97
2018-11-14T18:04:31.406Z,21.93
2018-11-14T18:06:59.617Z,26.27
2018-11-14T18:09:28.107Z,25.33
2018-11-14T18:11:56.325Z,25.17
2018-11-14T18:14:24.561Z,24.30
2018-11-14T18:16:52.781Z,25.53
2018-11-14T18:19:21.035Z,23.27
2018-11-14T18:21:49.289Z,24.33
2018-11-14T18:24:17.492Z,25.33
2018-11-14T18:26:45.675Z,24.77
2018-11-14T18:29:13.921Z,24.63
2018-11-14T18:31:42.187Z,24.53
2018-11-14T18:34:10.418Z,25.87
2018-11-14T18:36:38.565Z,25.47
2018-11-14T18:39:09.583Z,24.73
2018-11-14T18:41:37.832Z,24.60
2018-11-14T18:44:06.771Z,24.53
2018-11-14T18:46:34.957Z,25.70
2018-11-14T18:49:03.144Z,24.47
2018-11-14T18:51:31.411Z,24.00
2018-11-14T18:53:59.884Z,26.07
2018-11-14T18:56:28.090Z,26.57
2018-11-14T18:58:56.306Z,25.70
2018-11-14T19:01:24.547Z,25.07
2018-11-14T19:03:54.134Z,25.53
2018-11-14T19:06:22.454Z,25.63
2018-11-14T19:08:50.779Z,26.70
2018-11-14T19:11:18.960Z,25.23
2018-11-14T19:13:47.160Z,25.87
2018-11-14T19:16:15.386Z,24.60
2018-11-14T19:18:43.932Z,25.93
2018-11-14T19:21:12.214Z,26.73
2018-11-14T19:23:40.393Z,25.03
2018-11-14T19:26:08.605Z,26.60
2018-11-14T19:28:36.922Z,27.73
2018-11-14T19:31:05.478Z,26.57
2018-11-14T19:33:33.714Z,25.70
2018-11-14T19:36:01.958Z,25.27
2018-11-14T19:38:30.348Z,25.73
2018-11-14T19:40:58.556Z,25.57
2018-11-14T19:43:26.786Z,23.90
2018-11-14T19:48:37.392Z,23.50
2018-11-14T19:51:05.986Z,25.30
2018-11-14T19:53:34.822Z,25.27
2018-11-14T19:56:03.779Z,23.40
2018-11-14T19:58:32.124Z,25.80
2018-11-14T20:01:00.425Z,27.93
2018-11-14T20:03:28.704Z,26.97
2018-11-14T20:05:56.946Z,23.90
2018-11-14T20:08:25.182Z,23.53
2018-11-14T20:10:53.359Z,23.83
2018-11-14T20:13:21.703Z,22.70
2018-11-14T20:15:49.921Z,21.80
2018-11-14T20:18:18.173Z,23.43
2018-11-14T20:20:46.420Z,24.13
2018-11-14T20:23:14.726Z,23.53
2018-11-14T20:25:42.996Z,23.90
2018-11-14T20:28:11.493Z,22.40
2018-11-14T20:30:40.407Z,21.00
2018-11-14T20:33:10.436Z,21.27
2018-11-14T20:35:38.809Z,24.20
2018-11-14T20:38:07.333Z,22.67
2018-11-14T20:40:39.419Z,23.93
2018-11-14T20:43:08.130Z,22.10
2018-11-14T20:45:36.339Z,22.57
2018-11-14T20:48:04.600Z,22.73
2018-11-14T20:50:33.145Z,22.40
2018-11-14T20:53:03.059Z,22.20
2018-11-14T20:55:32.157Z,24.07
2018-11-14T20:58:00.913Z,24.90
2018-11-14T21:00:30.391Z,25.53
2018-11-14T21:02:58.757Z,23.37
2018-11-14T21:05:27.670Z,23.03
2018-11-14T21:07:56.612Z,23.47
2018-11-14T21:10:28.113Z,23.67
2018-11-14T21:12:56.647Z,23.73
2018-11-14T21:15:27.220Z,22.03
2018-11-14T21:17:56.227Z,22.47
2018-11-14T21:20:24.452Z,22.67
2018-11-14T21:22:52.706Z,21.80
2018-11-14T21:25:21.945Z,21.23
2018-11-14T21:27:50.618Z,22.10
2018-11-14T21:30:20.261Z,22.70
2018-11-14T21:32:48.581Z,23.17
2018-11-14T21:35:20.567Z,22.03
2018-11-14T21:37:50.287Z,23.53
2018-11-14T21:40:18.637Z,21.90
2018-11-14T21:42:46.876Z,20.80
2018-11-14T21:45:17.294Z,21.40
2018-11-14T21:47:51.037Z,21.13
2018-11-14T21:50:20.409Z,22.50
2018-11-14T21:52:49.059Z,20.93
2018-11-14T21:55:17.919Z,19.73
2018-11-14T21:57:46.137Z,20.33
2018-11-14T22:00:17.811Z,21.40
2018-11-14T22:02:47.405Z,20.90
2018-11-14T22:05:15.611Z,24.13
2018-11-14T22:07:43.784Z,21.57
2018-11-14T22:10:14.165Z,20.20
2018-11-14T22:12:42.837Z,20.27
2018-11-14T22:15:11.656Z,19.93
2018-11-14T22:17:40.301Z,19.27
2018-11-14T22:20:10.584Z,19.03
2018-11-14T22:22:39.096Z,18.43
2018-11-14T22:25:07.713Z,18.83
2018-11-14T22:27:36.365Z,18.80
2018-11-14T22:30:05.922Z,18.10
2018-11-14T22:32:34.188Z,18.00
2018-11-14T22:35:02.806Z,19.30
2018-11-14T22:37:30.936Z,18.50
2018-11-14T22:39:59.139Z,19.90
2018-11-14T22:42:27.292Z,18.73
2018-11-14T22:44:55.555Z,19.97
2018-11-14T22:47:23.916Z,18.70
2018-11-14T22:49:52.092Z,21.50
2018-11-14T22:52:20.211Z,21.33
2018-11-14T22:54:48.412Z,19.10
2018-11-14T22:57:16.576Z,19.90
2018-11-14T22:59:44.758Z,20.17
2018-11-14T23:02:12.914Z,20.80
2018-11-14T23:04:41.096Z,20.77
2018-11-14T23:07:09.286Z,19.40
2018-11-14T23:09:37.543Z,19.53
2018-11-14T23:12:05.879Z,18.30
2018-11-14T23:14:34.070Z,19.90
2018-11-14T23:17:02.250Z,19.20
2018-11-14T23:19:30.603Z,20.20
2018-11-14T23:21:59.016Z,18.57
2018-11-14T23:24:27.187Z,19.47
2018-11-14T23:26:55.418Z,18.70
2018-11-14T23:29:23.606Z,18.80
2018-11-14T23:31:51.843Z,18.93
2018-11-14T23:34:20.076Z,19.37
2018-11-14T23:36:48.248Z,20.00
2018-11-14T23:39:16.422Z,18.30
2018-11-14T23:41:44.604Z,19.10
2018-11-14T23:44:12.774Z,18.60
2018-11-14T23:46:40.933Z,18.63
2018-11-14T23:49:09.102Z,19.27
2018-11-14T23:51:37.258Z,17.50
2018-11-14T23:54:06.258Z,19.90
2018-11-14T23:56:40.772Z,18.20
2018-11-14T23:59:08.930Z,19.20
